Time;durP1;ratioP1;P1;durP2;ratioP2;P2;SDS_P1;SDS_P2;PMS_P1;PMS_P2;Temp;Humidity;BMP_temperature;BMP_pressure;BME280_temperature;BME280_humidity;BME280_pressure;Samples;Min_cycle;Max_cycle;Signal;HPM_P1;HPM_P2
2023/01/24 00:01:21;;;;;;;20.55;13.57;;;2.60;99.90;;;;;;5007085;28;20120;-61
2023/01/24 00:03:47;;;;;;;20.55;13.88;;;2.60;99.90;;;;;;4989392;28;20510;-61
2023/01/24 00:06:14;;;;;;;20.60;13.63;;;2.60;99.90;;;;;;4974937;28;20064;-61
2023/01/24 00:08:42;;;;;;;20.38;13.38;;;2.60;99.90;;;;;;4992921;28;20400;-61
2023/01/24 00:11:10;;;;;;;20.20;13.63;;;2.60;99.90;;;;;;4992275;28;20046;-61
2023/01/24 00:13:37;;;;;;;23.10;14.88;;;2.60;99.90;;;;;;4992636;28;20042;-61
2023/01/24 00:16:12;;;;;;;20.77;14.43;;;2.60;99.90;;;;;;4994242;28;20119;-61
2023/01/24 00:18:38;;;;;;;22.77;14.50;;;2.60;99.90;;;;;;4991981;28;20049;-61
2023/01/24 00:21:24;;;;;;;19.25;13.40;;;2.60;99.90;;;;;;4996929;28;20113;-61
2023/01/24 00:23:54;;;;;;;20.65;14.00;;;2.70;99.90;;;;;;4993819;28;20088;-61
2023/01/24 00:26:21;;;;;;;21.33;14.80;;;2.70;99.90;;;;;;4993313;28;20068;-61
2023/01/24 00:28:47;;;;;;;23.02;15.07;;;2.60;99.90;;;;;;5034386;28;20056;-61
2023/01/24 00:31:14;;;;;;;26.75;16.27;;;2.70;99.90;;;;;;5035498;28;20043;-61
2023/01/24 00:33:39;;;;;;;27.42;15.90;;;2.60;99.90;;;;;;5013907;28;20531;-61
2023/01/24 00:36:06;;;;;;;25.20;16.70;;;2.70;99.90;;;;;;5017127;28;20120;-60
2023/01/24 00:38:32;;;;;;;25.63;16.77;;;2.70;99.90;;;;;;5031300;28;20125;-61
2023/01/24 00:40:58;;;;;;;27.70;17.83;;;2.70;99.90;;;;;;5017568;28;20041;-61
2023/01/24 00:43:26;;;;;;;28.02;18.25;;;2.70;99.90;;;;;;5033983;28;20159;-61
2023/01/24 00:45:52;;;;;;;26.73;17.92;;;2.70;99.90;;;;;;5034896;28;20048;-61
2023/01/24 00:48:17;;;;;;;30.17;17.40;;;2.70;99.90;;;;;;5037737;28;20095;-61
2023/01/24 00:50:43;;;;;;;28.77;18.05;;;2.70;99.90;;;;;;4998457;28;20848;-61
2023/01/24 00:53:09;;;;;;;28.52;18.35;;;2.70;99.90;;;;;;5032070;28;20160;-61
2023/01/24 00:55:41;;;;;;;27.23;17.48;;;2.70;99.90;;;;;;5031032;28;20140;-61
2023/01/24 00:58:07;;;;;;;27.15;17.45;;;2.70;99.90;;;;;;5034269;28;20045;-61
2023/01/24 01:00:34;;;;;;;26.02;17.98;;;2.70;99.90;;;;;;5001631;28;20660;-61
2023/01/24 01:03:00;;;;;;;28.25;18.10;;;2.70;99.90;;;;;;5029311;28;20474;-61
2023/01/24 01:05:25;;;;;;;28.17;17.92;;;2.70;99.90;;;;;;5012407;28;20044;-61
2023/01/24 01:07:51;;;;;;;27.73;18.25;;;2.70;99.90;;;;;;5007901;28;20071;-61
2023/01/24 01:10:17;;;;;;;28.83;18.92;;;2.70;99.90;;;;;;5035482;28;20049;-61
2023/01/24 01:12:43;;;;;;;30.90;19.55;;;2.70;99.90;;;;;;5011902;28;20059;-61
2023/01/24 01:15:09;;;;;;;28.30;18.65;;;2.70;99.90;;;;;;5033377;28;20120;-61
2023/01/24 01:17:35;;;;;;;29.20;18.73;;;2.70;99.90;;;;;;4997011;28;20056;-61
2023/01/24 01:20:02;;;;;;;30.80;18.92;;;2.70;99.90;;;;;;5025713;28;20040;-61
2023/01/24 01:22:27;;;;;;;33.15;20.23;;;2.80;99.90;;;;;;5035593;28;25368;-61
2023/01/24 01:24:53;;;;;;;29.60;19.17;;;2.70;99.90;;;;;;5021435;28;20119;-61
2023/01/24 01:27:20;;;;;;;27.45;18.25;;;2.70;99.90;;;;;;5001911;28;20060;-61
2023/01/24 01:29:46;;;;;;;30.02;19.52;;;2.70;99.90;;;;;;5016218;28;20380;-61
2023/01/24 01:32:12;;;;;;;31.67;20.13;;;2.70;99.90;;;;;;5036494;28;20079;-62
2023/01/24 01:34:38;;;;;;;30.00;19.33;;;2.70;99.90;;;;;;5021358;28;20060;-61
2023/01/24 01:37:03;;;;;;;28.02;19.13;;;2.70;99.90;;;;;;5016020;28;20832;-61
2023/01/24 01:39:29;;;;;;;28.85;18.77;;;2.70;99.90;;;;;;5035582;28;20090;-61
2023/01/24 01:41:55;;;;;;;32.17;19.95;;;2.70;99.90;;;;;;5015648;28;20053;-61
2023/01/24 01:44:47;;;;;;;31.15;19.15;;;2.70;99.90;;;;;;5033646;28;20051;-61
2023/01/24 01:47:22;;;;;;;35.37;19.53;;;2.70;99.90;;;;;;5033612;28;20049;-61
2023/01/24 01:50:07;;;;;;;28.75;18.92;;;2.80;99.90;;;;;;5034643;28;20052;-61
2023/01/24 01:52:37;;;;;;;30.35;19.00;;;2.70;99.90;;;;;;5030489;28;20052;-61
2023/01/24 01:55:10;;;;;;;31.95;19.95;;;2.70;99.90;;;;;;5014215;28;20048;-61
2023/01/24 01:57:36;;;;;;;29.48;19.92;;;2.70;99.90;;;;;;5027657;28;21073;-61
2023/01/24 02:00:16;;;;;;;29.80;19.92;;;2.70;99.90;;;;;;5032854;28;20092;-61
2023/01/24 02:02:46;;;;;;;29.63;18.85;;;2.70;99.90;;;;;;5031058;28;20037;-61
2023/01/24 02:05:14;;;;;;;29.65;18.95;;;2.70;99.90;;;;;;5030532;28;20047;-61
2023/01/24 02:07:55;;;;;;;32.47;20.98;;;2.70;99.90;;;;;;5013352;28;20045;-61
2023/01/24 02:10:24;;;;;;;33.30;19.77;;;2.70;99.90;;;;;;5031766;28;20731;-61
2023/01/24 02:12:53;;;;;;;34.45;20.40;;;2.70;99.90;;;;;;5027758;28;20048;-61
2023/01/24 02:18:08;;;;;;;32.63;20.27;;;2.70;99.90;;;;;;5031838;28;20087;-61
2023/01/24 02:20:41;;;;;;;31.90;20.17;;;2.70;99.90;;;;;;5011756;28;20549;-61
2023/01/24 02:23:09;;;;;;;31.50;20.77;;;2.70;99.90;;;;;;4996338;28;20056;-61
2023/01/24 02:26:14;;;;;;;33.80;20.23;;;2.80;99.90;;;;;;5031837;28;21000;-61
2023/01/24 02:28:45;;;;;;;35.67;21.40;;;2.80;99.90;;;;;;5028287;28;20441;-61
2023/01/24 02:31:11;;;;;;;34.08;21.10;;;2.70;99.90;;;;;;5031620;28;21161;-61
2023/01/24 02:33:37;;;;;;;33.47;20.70;;;2.70;99.90;;;;;;5013700;28;20072;-59
2023/01/24 02:36:29;;;;;;;34.50;21.40;;;2.70;99.90;;;;;;5029805;28;20998;-60
2023/01/24 02:39:11;;;;;;;33.42;21.63;;;2.70;99.90;;;;;;5028405;28;20052;-61
2023/01/24 02:41:48;;;;;;;32.15;20.27;;;2.70;99.90;;;;;;5029289;28;20534;-61
2023/01/24 02:44:19;;;;;;;34.38;21.48;;;2.80;99.90;;;;;;5025242;28;20057;-61
2023/01/24 02:46:46;;;;;;;33.67;20.75;;;2.80;99.90;;;;;;5031411;28;20053;-61
2023/01/24 02:49:12;;;;;;;35.63;20.98;;;2.70;99.90;;;;;;5008628;28;20459;-61
2023/01/24 02:54:23;;;;;;;34.90;21.00;;;2.70;99.90;;;;;;5009570;28;20049;-61
2023/01/24 02:59:33;;;;;;;32.90;19.70;;;2.70;99.90;;;;;;5017766;28;20399;-59
2023/01/24 03:01:59;;;;;;;34.35;21.55;;;2.70;99.90;;;;;;4995454;28;20045;-60
2023/01/24 03:04:25;;;;;;;31.48;20.52;;;2.80;99.90;;;;;;4995417;28;20415;-60
2023/01/24 03:06:51;;;;;;;31.63;20.92;;;2.70;99.90;;;;;;5027613;28;20412;-61
2023/01/24 03:09:19;;;;;;;31.83;20.65;;;2.70;99.90;;;;;;5024904;28;20448;-61
2023/01/24 03:11:49;;;;;;;31.42;20.25;;;2.80;99.90;;;;;;5011227;28;20064;-62
2023/01/24 03:36:19;;;;;;;30.80;18.75;;;2.70;99.90;;;;;;5034039;28;20079;-61
2023/01/24 03:41:30;;;;;;;28.23;17.67;;;2.70;99.90;;;;;;5014528;28;20045;-61
2023/01/24 03:43:56;;;;;;;26.52;17.90;;;2.70;99.90;;;;;;5036046;28;20072;-61
2023/01/24 03:46:22;;;;;;;28.95;19.10;;;2.70;99.90;;;;;;5015702;28;20060;-60
2023/01/24 03:48:47;;;;;;;28.35;18.52;;;2.70;99.90;;;;;;5037400;28;20041;-61
2023/01/24 03:53:57;;;;;;;28.98;19.08;;;2.80;99.90;;;;;;5031015;28;20056;-61
2023/01/24 03:56:23;;;;;;;30.42;19.38;;;2.80;99.90;;;;;;5014368;28;20053;-61
2023/01/24 03:58:53;;;;;;;29.17;19.70;;;2.80;99.90;;;;;;5015990;28;20045;-61
2023/01/24 04:01:20;;;;;;;30.45;18.60;;;2.70;99.90;;;;;;5017345;28;20091;-61
2023/01/24 04:03:46;;;;;;;28.90;18.38;;;2.70;99.90;;;;;;5018816;28;20056;-61
2023/01/24 04:06:12;;;;;;;32.20;18.77;;;2.70;99.90;;;;;;5032019;28;20056;-61
2023/01/24 04:08:37;;;;;;;28.00;18.38;;;2.70;99.90;;;;;;5031639;28;20057;-61
2023/01/24 04:11:03;;;;;;;27.45;18.00;;;2.80;99.90;;;;;;5016386;28;20041;-60
2023/01/24 04:13:29;;;;;;;30.48;18.83;;;2.70;99.90;;;;;;5035625;28;20505;-61
2023/01/24 04:15:55;;;;;;;30.10;18.35;;;2.70;99.90;;;;;;5033014;28;20164;-60
2023/01/24 04:18:21;;;;;;;28.65;19.23;;;2.70;99.90;;;;;;5034679;28;20053;-61
2023/01/24 04:20:47;;;;;;;29.98;18.92;;;2.70;99.90;;;;;;5032508;28;20114;-61
2023/01/24 04:23:13;;;;;;;26.98;18.65;;;2.80;99.90;;;;;;4999910;28;22065;-61
2023/01/24 04:25:39;;;;;;;26.35;18.13;;;2.80;99.90;;;;;;5029586;28;20049;-61
2023/01/24 04:28:05;;;;;;;28.00;18.27;;;2.70;99.90;;;;;;5015710;28;20140;-61
2023/01/24 04:30:31;;;;;;;27.77;17.80;;;2.70;99.90;;;;;;5033910;28;20099;-61
2023/01/24 04:32:57;;;;;;;26.70;17.23;;;2.80;99.90;;;;;;5010788;28;20503;-60
2023/01/24 04:35:25;;;;;;;26.15;17.05;;;2.70;99.90;;;;;;5014672;28;25410;-61
2023/01/24 04:37:52;;;;;;;23.52;15.82;;;2.80;99.90;;;;;;5013714;28;20127;-60
2023/01/24 04:40:17;;;;;;;24.73;15.02;;;2.70;99.90;;;;;;5014832;28;20048;-61
2023/01/24 04:42:43;;;;;;;19.77;14.35;;;2.70;99.90;;;;;;5030263;28;21026;-60
2023/01/24 04:45:11;;;;;;;19.58;13.85;;;2.70;99.90;;;;;;5030597;28;20049;-61
2023/01/24 04:47:37;;;;;;;19.35;13.85;;;2.70;99.90;;;;;;5030050;28;20045;-61
2023/01/24 04:50:03;;;;;;;22.08;14.95;;;2.70;99.90;;;;;;5034722;28;20045;-59
2023/01/24 04:52:29;;;;;;;23.77;14.82;;;2.70;99.90;;;;;;5030088;28;20124;-61
2023/01/24 04:54:55;;;;;;;23.05;15.82;;;2.70;99.90;;;;;;5014615;28;20059;-61
2023/01/24 04:57:20;;;;;;;23.23;15.32;;;2.80;99.90;;;;;;5028270;28;20171;-61
2023/01/24 04:59:46;;;;;;;25.15;16.65;;;2.70;99.90;;;;;;5001385;28;20048;-61
2023/01/24 05:02:12;;;;;;;25.75;16.70;;;2.70;99.90;;;;;;5034230;28;20059;-62
2023/01/24 05:04:39;;;;;;;21.15;16.00;;;2.70;99.90;;;;;;5036575;28;20061;-60
2023/01/24 05:07:05;;;;;;;24.63;16.25;;;2.70;99.90;;;;;;5030627;28;20041;-61
2023/01/24 05:09:30;;;;;;;24.23;16.55;;;2.70;99.90;;;;;;5031723;28;20045;-61
2023/01/24 05:11:56;;;;;;;23.13;15.68;;;2.70;99.90;;;;;;5032835;28;20044;-61
2023/01/24 05:14:22;;;;;;;23.70;16.30;;;2.80;99.90;;;;;;5030585;28;20063;-61
2023/01/24 05:16:48;;;;;;;23.10;16.80;;;2.70;99.90;;;;;;5029044;28;20423;-61
2023/01/24 05:19:14;;;;;;;21.95;16.17;;;2.70;99.90;;;;;;5029081;28;20045;-61
2023/01/24 05:21:39;;;;;;;22.30;15.82;;;2.70;99.90;;;;;;5016889;28;20118;-61
2023/01/24 05:24:06;;;;;;;23.25;15.32;;;2.70;99.90;;;;;;5017099;28;20063;-61
2023/01/24 05:26:31;;;;;;;25.52;15.60;;;2.70;99.90;;;;;;5016941;28;20046;-61
2023/01/24 05:28:57;;;;;;;23.05;16.27;;;2.70;99.90;;;;;;5035395;28;20383;-61
2023/01/24 05:31:23;;;;;;;22.23;15.88;;;2.70;99.90;;;;;;5030760;28;20048;-60
2023/01/24 05:33:49;;;;;;;22.42;16.02;;;2.70;99.90;;;;;;5034753;28;20133;-61
2023/01/24 05:36:18;;;;;;;23.05;16.08;;;2.80;99.90;;;;;;5034722;28;20530;-61
2023/01/24 05:38:45;;;;;;;23.65;15.73;;;2.70;99.90;;;;;;5032283;28;20056;-61
2023/01/24 05:41:15;;;;;;;23.60;16.52;;;2.80;99.90;;;;;;5032832;28;20049;-61
2023/01/24 05:43:42;;;;;;;21.77;15.25;;;2.70;99.90;;;;;;5035861;28;20041;-61
2023/01/24 05:46:12;;;;;;;21.70;15.48;;;2.70;99.90;;;;;;5015519;28;20392;-61
2023/01/24 05:48:38;;;;;;;23.52;17.05;;;2.70;99.90;;;;;;5014344;28;20105;-61
2023/01/24 05:51:06;;;;;;;22.85;16.02;;;2.70;99.90;;;;;;5030552;28;20496;-61
2023/01/24 05:53:35;;;;;;;23.63;16.50;;;2.70;99.90;;;;;;5009394;28;20502;-61
2023/01/24 05:56:06;;;;;;;23.67;16.35;;;2.70;99.90;;;;;;5031256;28;20037;-61
2023/01/24 05:58:36;;;;;;;23.08;16.20;;;2.70;99.90;;;;;;5032542;28;20399;-60
2023/01/24 06:01:07;;;;;;;25.20;17.13;;;2.80;99.90;;;;;;5034623;28;20049;-61
2023/01/24 06:03:34;;;;;;;25.60;17.15;;;2.70;99.90;;;;;;5032278;28;20056;-61
2023/01/24 06:06:00;;;;;;;24.52;16.95;;;2.70;99.90;;;;;;5031873;28;20048;-61
2023/01/24 06:08:26;;;;;;;24.35;16.83;;;2.70;99.90;;;;;;5022884;28;20045;-61
2023/01/24 06:10:52;;;;;;;23.77;16.42;;;2.70;99.90;;;;;;5039925;28;20123;-61
2023/01/24 06:13:17;;;;;;;25.08;17.02;;;2.70;99.90;;;;;;5038789;28;20043;-61
2023/01/24 06:15:43;;;;;;;24.70;16.60;;;2.70;99.90;;;;;;5037720;28;20044;-61
2023/01/24 06:18:14;;;;;;;24.33;16.85;;;2.70;99.90;;;;;;5039913;28;20044;-61
2023/01/24 06:20:40;;;;;;;26.05;16.70;;;2.70;99.90;;;;;;5038132;28;20041;-61
2023/01/24 06:23:09;;;;;;;24.17;16.35;;;2.70;99.90;;;;;;5014917;28;20048;-61
2023/01/24 06:25:36;;;;;;;24.85;16.45;;;2.60;99.90;;;;;;5009545;28;20049;-60
2023/01/24 06:28:02;;;;;;;24.02;16.85;;;2.60;99.90;;;;;;5027595;28;20419;-60
2023/01/24 06:30:28;;;;;;;26.05;17.88;;;2.60;99.90;;;;;;5012389;28;20051;-61
2023/01/24 06:33:12;;;;;;;25.40;17.55;;;2.70;99.90;;;;;;5031154;28;20499;-61
2023/01/24 06:35:44;;;;;;;27.10;17.13;;;2.60;99.90;;;;;;5035739;28;20040;-61
2023/01/24 06:38:23;;;;;;;24.45;16.27;;;2.60;99.90;;;;;;5032426;28;20155;-61
2023/01/24 06:40:53;;;;;;;26.70;18.08;;;2.60;99.90;;;;;;5030298;28;20068;-61
2023/01/24 06:43:19;;;;;;;27.52;17.80;;;2.60;99.90;;;;;;5034368;28;20467;-61
2023/01/24 06:45:45;;;;;;;29.08;18.42;;;2.60;99.90;;;;;;5026272;28;20080;-61
2023/01/24 06:48:11;;;;;;;27.98;18.05;;;2.60;99.90;;;;;;5024944;28;20091;-61
2023/01/24 06:50:37;;;;;;;28.52;18.67;;;2.60;99.90;;;;;;5022829;28;20131;-61
2023/01/24 06:53:03;;;;;;;27.45;19.20;;;2.60;99.90;;;;;;5030517;28;20135;-61
2023/01/24 06:55:30;;;;;;;26.90;18.38;;;2.60;99.90;;;;;;5038956;28;20053;-61
2023/01/24 06:57:57;;;;;;;27.75;18.40;;;2.60;99.90;;;;;;5036522;28;20353;-61
2023/01/24 07:00:23;;;;;;;27.50;17.85;;;2.60;99.90;;;;;;5038732;28;20044;-64
2023/01/24 07:03:00;;;;;;;30.67;18.92;;;2.50;99.90;;;;;;5020134;28;20534;-61
2023/01/24 07:05:27;;;;;;;30.17;18.92;;;2.60;99.90;;;;;;5041604;28;20034;-61
2023/01/24 07:07:53;;;;;;;29.08;18.85;;;2.50;99.90;;;;;;5039296;28;20045;-61
2023/01/24 07:10:19;;;;;;;28.27;18.67;;;2.50;99.90;;;;;;5042129;28;20041;-61
2023/01/24 07:12:44;;;;;;;33.72;19.85;;;2.50;99.90;;;;;;5036682;28;20049;-61
2023/01/24 07:15:10;;;;;;;29.65;18.33;;;2.50;99.90;;;;;;5038913;28;20041;-61
2023/01/24 07:17:37;;;;;;;27.95;18.08;;;2.50;99.90;;;;;;5043340;28;20074;-61
2023/01/24 07:20:03;;;;;;;31.02;20.13;;;2.50;99.90;;;;;;5045987;28;20041;-61
2023/01/24 07:22:30;;;;;;;30.52;19.92;;;2.50;99.90;;;;;;5045487;28;20041;-61
2023/01/24 07:24:56;;;;;;;29.23;19.02;;;2.50;99.90;;;;;;5043527;28;20099;-61
2023/01/24 07:27:22;;;;;;;33.42;19.48;;;2.60;99.90;;;;;;5029464;28;20056;-61
2023/01/24 07:29:48;;;;;;;31.92;20.13;;;2.60;99.90;;;;;;5030154;28;20098;-61
2023/01/24 07:32:14;;;;;;;28.75;18.83;;;2.50;99.90;;;;;;5003314;28;20042;-61
2023/01/24 07:34:40;;;;;;;28.60;19.17;;;2.50;99.90;;;;;;5029356;28;20059;-61
2023/01/24 07:37:09;;;;;;;31.25;18.63;;;2.50;99.90;;;;;;5047482;28;20052;-60
2023/01/24 07:39:34;;;;;;;27.05;18.27;;;2.50;99.90;;;;;;5044439;28;20118;-61
2023/01/24 07:42:00;;;;;;;26.77;17.80;;;2.50;99.90;;;;;;5046087;28;20044;-61
2023/01/24 07:44:26;;;;;;;25.92;17.13;;;2.50;99.90;;;;;;5014994;28;20045;-61
2023/01/24 07:46:52;;;;;;;22.77;16.02;;;2.50;99.90;;;;;;5046770;28;20116;-61
2023/01/24 07:49:18;;;;;;;23.65;16.23;;;2.50;99.90;;;;;;5046567;28;20049;-61
2023/01/24 07:51:45;;;;;;;21.30;14.88;;;2.50;99.90;;;;;;5043853;28;20056;-61
2023/01/24 07:54:11;;;;;;;22.13;14.93;;;2.50;99.90;;;;;;5046201;28;20052;-61
2023/01/24 07:56:37;;;;;;;24.55;15.27;;;2.50;99.90;;;;;;5046620;28;20041;-61
2023/01/24 07:59:06;;;;;;;23.88;15.10;;;2.50;99.90;;;;;;5045720;28;20029;-61
2023/01/24 08:01:31;;;;;;;23.83;14.73;;;2.50;99.90;;;;;;5017044;28;20049;-61
2023/01/24 08:03:58;;;;;;;22.40;15.32;;;2.50;99.90;;;;;;5045239;28;20114;-60
2023/01/24 08:06:24;;;;;;;21.10;14.02;;;2.50;99.90;;;;;;5025369;28;20495;-61
2023/01/24 08:08:50;;;;;;;25.10;15.45;;;2.50;99.90;;;;;;5045203;28;20059;-61
2023/01/24 08:11:17;;;;;;;21.73;14.45;;;2.50;99.90;;;;;;5045206;28;20570;-61
2023/01/24 08:13:46;;;;;;;22.23;14.55;;;2.50;99.90;;;;;;5044164;28;20045;-61
2023/01/24 08:16:12;;;;;;;20.55;14.32;;;2.50;99.90;;;;;;5044797;28;20492;-61
2023/01/24 08:18:40;;;;;;;21.17;13.90;;;2.50;99.90;;;;;;5030846;28;20059;-61
2023/01/24 08:21:06;;;;;;;20.58;13.68;;;2.50;99.90;;;;;;5045396;28;20048;-61
2023/01/24 08:23:32;;;;;;;19.23;13.88;;;2.50;99.90;;;;;;5046610;28;20045;-61
2023/01/24 08:25:59;;;;;;;21.10;14.02;;;2.50;99.90;;;;;;5043437;28;20041;-61
2023/01/24 08:28:25;;;;;;;21.98;13.15;;;2.50;99.90;;;;;;5045608;28;20049;-61
2023/01/24 08:30:51;;;;;;;20.80;13.98;;;2.50;99.90;;;;;;5044230;28;20056;-61
2023/01/24 08:33:19;;;;;;;19.98;13.00;;;2.50;99.90;;;;;;5043469;28;20560;-61
2023/01/24 08:35:46;;;;;;;18.25;13.02;;;2.50;99.90;;;;;;5026397;28;20049;-60
2023/01/24 08:38:13;;;;;;;19.88;12.75;;;2.50;99.90;;;;;;5025091;28;20118;-60
2023/01/24 08:40:39;;;;;;;18.83;13.18;;;2.50;99.90;;;;;;5045292;28;20045;-61
2023/01/24 08:43:05;;;;;;;20.55;13.00;;;2.50;99.90;;;;;;5027950;28;20422;-61
2023/01/24 08:45:31;;;;;;;20.63;12.60;;;2.50;99.90;;;;;;5024963;28;20053;-61
2023/01/24 08:47:57;;;;;;;18.60;12.23;;;2.50;99.90;;;;;;5037094;28;20052;-61
2023/01/24 08:50:23;;;;;;;18.83;12.20;;;2.60;99.90;;;;;;5045252;28;20557;-61
2023/01/24 08:52:51;;;;;;;19.10;13.52;;;2.50;99.90;;;;;;5042802;28;20060;-61
2023/01/24 08:55:17;;;;;;;18.23;12.30;;;2.60;99.90;;;;;;5043667;28;20039;-61
2023/01/24 08:57:42;;;;;;;17.83;12.00;;;2.60;99.90;;;;;;5044589;28;20049;-61
2023/01/24 09:00:09;;;;;;;17.42;11.65;;;2.60;99.90;;;;;;5043228;28;20799;-61
2023/01/24 09:02:38;;;;;;;17.50;11.85;;;2.60;99.90;;;;;;5041299;28;20525;-61
2023/01/24 09:05:05;;;;;;;17.85;12.18;;;2.60;99.90;;;;;;5016496;28;20136;-61
2023/01/24 09:07:31;;;;;;;18.70;13.10;;;2.60;99.90;;;;;;5045403;28;20048;-61
2023/01/24 09:09:57;;;;;;;17.65;12.20;;;2.50;99.90;;;;;;5041945;28;20078;-61
2023/01/24 09:12:23;;;;;;;18.45;12.05;;;2.60;99.90;;;;;;5044147;28;20033;-61
2023/01/24 09:14:49;;;;;;;20.67;12.52;;;2.60;99.90;;;;;;5045973;28;20041;-60
2023/01/24 09:17:14;;;;;;;18.77;11.65;;;2.60;99.90;;;;;;5024826;28;20049;-60
2023/01/24 09:19:40;;;;;;;21.25;12.50;;;2.60;99.90;;;;;;5042931;28;20052;-60
2023/01/24 09:22:06;;;;;;;17.02;12.18;;;2.60;99.90;;;;;;5044079;28;20041;-60
2023/01/24 09:24:32;;;;;;;17.83;12.20;;;2.60;99.90;;;;;;5044140;28;20056;-61
2023/01/24 09:26:57;;;;;;;19.95;12.77;;;2.60;99.90;;;;;;5045014;28;20041;-61
2023/01/24 09:29:23;;;;;;;17.25;12.02;;;2.70;99.90;;;;;;5042726;28;20084;-61
2023/01/24 09:31:49;;;;;;;18.80;12.75;;;2.70;99.90;;;;;;5044453;28;20049;-61
2023/01/24 09:34:15;;;;;;;18.02;12.27;;;2.70;99.90;;;;;;5028752;28;20076;-60
2023/01/24 09:36:41;;;;;;;16.98;11.45;;;2.70;99.90;;;;;;5043574;28;20049;-61
2023/01/24 09:39:07;;;;;;;17.75;11.25;;;2.70;99.90;;;;;;5026504;28;20130;-62
2023/01/24 09:42:02;;;;;;;18.17;11.48;;;2.70;99.90;;;;;;5024933;28;20049;-61
2023/01/24 09:44:36;;;;;;;18.17;11.02;;;2.70;99.90;;;;;;5046929;28;20540;-60
2023/01/24 09:47:15;;;;;;;17.45;11.05;;;2.70;99.90;;;;;;5044078;28;20120;-60
2023/01/24 09:49:50;;;;;;;16.58;11.07;;;2.70;99.90;;;;;;5024995;28;20056;-61
2023/01/24 09:52:27;;;;;;;14.80;10.55;;;2.70;99.90;;;;;;5043506;28;20119;-60
2023/01/24 09:55:14;;;;;;;16.45;11.18;;;2.70;99.90;;;;;;5025559;28;20479;-60
2023/01/24 09:57:49;;;;;;;15.95;10.77;;;2.70;99.90;;;;;;5043129;28;20088;-61
2023/01/24 10:00:30;;;;;;;17.35;11.38;;;2.70;99.90;;;;;;5024169;28;20526;-61
2023/01/24 10:02:59;;;;;;;16.13;10.60;;;2.70;99.90;;;;;;5045632;28;20150;-58
2023/01/24 10:05:46;;;;;;;16.02;10.90;;;2.70;99.90;;;;;;5045104;28;20045;-61
2023/01/24 10:08:17;;;;;;;17.63;10.90;;;2.70;99.90;;;;;;5044362;28;20053;-61
2023/01/24 10:10:45;;;;;;;15.00;10.43;;;2.80;99.90;;;;;;5025650;28;20144;-61
2023/01/24 10:13:42;;;;;;;15.95;11.05;;;2.80;99.90;;;;;;5044068;28;20510;-61
2023/01/24 10:16:35;;;;;;;16.35;11.23;;;2.80;99.90;;;;;;5020193;28;20446;-61
2023/01/24 10:19:10;;;;;;;17.20;11.15;;;2.80;99.90;;;;;;5024340;28;20041;-61
2023/01/24 10:22:01;;;;;;;14.77;10.60;;;2.80;99.90;;;;;;5043799;28;20033;-61
2023/01/24 10:24:32;;;;;;;16.83;11.07;;;2.80;99.90;;;;;;5042317;28;20044;-61
2023/01/24 10:26:59;;;;;;;16.58;10.60;;;2.80;99.90;;;;;;5026968;28;20128;-62
2023/01/24 10:29:30;;;;;;;15.50;10.73;;;2.90;99.90;;;;;;4992956;28;20062;-61
2023/01/24 10:32:05;;;;;;;16.13;10.98;;;2.80;99.90;;;;;;5004939;28;20041;-61
2023/01/24 10:34:43;;;;;;;16.13;9.98;;;2.90;99.90;;;;;;5000409;28;20057;-61
2023/01/24 10:37:08;;;;;;;16.00;11.27;;;2.90;99.90;;;;;;5003208;28;20115;-62
2023/01/24 10:39:34;;;;;;;16.25;11.20;;;2.90;99.90;;;;;;5004642;28;20049;-61
2023/01/24 10:42:00;;;;;;;15.48;10.07;;;2.80;99.90;;;;;;5003800;28;20034;-61
2023/01/24 10:44:28;;;;;;;15.48;10.88;;;2.90;99.90;;;;;;5005065;28;20049;-61
2023/01/24 10:47:22;;;;;;;16.27;10.90;;;2.90;99.90;;;;;;5006961;28;20160;-61
2023/01/24 10:50:00;;;;;;;15.57;10.70;;;2.90;99.90;;;;;;5005841;28;20165;-61
2023/01/24 10:52:26;;;;;;;15.95;10.95;;;2.90;99.90;;;;;;5006124;28;20069;-61
2023/01/24 10:54:55;;;;;;;15.38;10.77;;;2.90;99.90;;;;;;5007279;28;20038;-61
2023/01/24 10:57:30;;;;;;;15.52;10.98;;;2.90;99.90;;;;;;5007352;28;20054;-61
2023/01/24 11:00:00;;;;;;;15.20;10.63;;;2.90;99.90;;;;;;5009359;28;20066;-61
2023/01/24 11:02:26;;;;;;;17.17;11.50;;;3.00;99.90;;;;;;5008816;28;20076;-61
2023/01/24 11:05:11;;;;;;;15.85;11.23;;;2.90;99.90;;;;;;5007403;28;21182;-61
2023/01/24 11:07:40;;;;;;;15.32;11.00;;;3.00;99.90;;;;;;5004636;28;20061;-61
2023/01/24 11:10:26;;;;;;;15.00;10.77;;;3.00;99.90;;;;;;5006996;28;20049;-61
2023/01/24 11:13:00;;;;;;;20.65;11.60;;;3.00;99.90;;;;;;5008114;28;20136;-60
2023/01/24 11:15:31;;;;;;;17.58;11.82;;;3.00;99.90;;;;;;5007077;28;20038;-61
2023/01/24 11:18:11;;;;;;;20.17;11.65;;;3.00;99.90;;;;;;5009421;28;20046;-61
2023/01/24 11:20:36;;;;;;;16.00;11.40;;;3.00;99.90;;;;;;5007533;28;20084;-61
2023/01/24 11:23:21;;;;;;;16.40;11.18;;;3.10;99.90;;;;;;5008899;28;20088;-61
2023/01/24 11:25:53;;;;;;;16.45;10.82;;;3.00;99.90;;;;;;5005204;28;20065;-61
2023/01/24 11:28:24;;;;;;;18.15;11.52;;;3.10;99.90;;;;;;5026150;28;20235;-61
2023/01/24 11:30:51;;;;;;;15.00;10.68;;;3.10;99.90;;;;;;5046598;28;20507;-61
2023/01/24 11:34:02;;;;;;;16.23;11.27;;;3.10;99.90;;;;;;5021823;28;20132;-61
2023/01/24 11:36:39;;;;;;;17.60;11.35;;;3.10;99.90;;;;;;4951214;28;20042;-60
2023/01/24 11:39:21;;;;;;;17.00;11.82;;;3.10;99.90;;;;;;4968702;28;20101;-61
2023/01/24 11:42:05;;;;;;;17.33;11.55;;;3.10;99.90;;;;;;5009543;28;20126;-61
2023/01/24 11:44:55;;;;;;;19.63;12.10;;;3.10;99.90;;;;;;5047386;28;20079;-61
2023/01/24 11:47:25;;;;;;;16.42;11.35;;;3.10;99.90;;;;;;5030397;28;20041;-61
2023/01/24 11:50:28;;;;;;;15.50;11.00;;;3.10;99.90;;;;;;5048495;28;20045;-61
2023/01/24 11:53:03;;;;;;;16.17;11.50;;;3.10;99.90;;;;;;5024455;28;20390;-61
2023/01/24 11:55:38;;;;;;;17.40;11.40;;;3.10;99.90;;;;;;5027278;28;20088;-61
2023/01/24 11:58:10;;;;;;;19.60;11.90;;;3.10;99.90;;;;;;5027014;28;20154;-61
2023/01/24 12:00:56;;;;;;;16.67;11.30;;;3.20;99.90;;;;;;5047807;28;20049;-61
2023/01/24 12:03:43;;;;;;;15.80;11.52;;;3.10;99.90;;;;;;5047203;28;20163;-61
2023/01/24 12:06:18;;;;;;;17.30;12.02;;;3.20;99.90;;;;;;5045891;28;20037;-61
2023/01/24 12:09:09;;;;;;;16.73;11.38;;;3.20;99.90;;;;;;5047854;28;20084;-61
2023/01/24 12:11:47;;;;;;;15.15;11.10;;;3.10;99.90;;;;;;5042822;28;20071;-61
2023/01/24 12:14:37;;;;;;;16.92;11.75;;;3.10;99.90;;;;;;5047635;28;21027;-61
2023/01/24 12:17:12;;;;;;;16.70;11.88;;;3.10;99.90;;;;;;5029731;28;20118;-61
2023/01/24 12:20:19;;;;;;;16.60;11.23;;;3.10;99.90;;;;;;5026400;28;20045;-62
2023/01/24 12:22:45;;;;;;;16.25;11.23;;;3.10;99.90;;;;;;5045082;28;20068;-61
2023/01/24 12:25:23;;;;;;;20.48;12.20;;;3.10;99.90;;;;;;5045885;28;20079;-61
2023/01/24 12:27:53;;;;;;;19.83;12.02;;;3.10;99.90;;;;;;5010425;28;20071;-61
2023/01/24 12:30:39;;;;;;;21.23;12.20;;;3.10;99.90;;;;;;5047272;28;20044;-61
2023/01/24 12:33:45;;;;;;;17.80;11.95;;;3.10;99.90;;;;;;5047684;28;20052;-61
2023/01/24 12:36:32;;;;;;;15.13;11.07;;;3.10;99.90;;;;;;4988175;28;20610;-61
2023/01/24 12:39:05;;;;;;;16.42;11.40;;;3.10;99.90;;;;;;5042898;28;20033;-60
2023/01/24 12:41:32;;;;;;;17.17;11.52;;;3.10;99.90;;;;;;5028980;28;20083;-61
2023/01/24 12:44:28;;;;;;;17.73;12.43;;;3.10;99.90;;;;;;5047613;28;20049;-61
2023/01/24 12:46:57;;;;;;;16.52;11.65;;;3.20;99.90;;;;;;5044949;28;20047;-61
2023/01/24 12:49:45;;;;;;;20.67;13.50;;;3.20;99.90;;;;;;5044551;28;20040;-61
2023/01/24 12:52:22;;;;;;;21.08;13.23;;;3.20;99.90;;;;;;5019406;28;20059;-61
2023/01/24 12:55:01;;;;;;;18.08;12.90;;;3.20;99.90;;;;;;5026775;28;20092;-61
2023/01/24 12:57:36;;;;;;;17.42;12.55;;;3.20;99.90;;;;;;5046740;28;20045;-61
2023/01/24 13:00:04;;;;;;;19.63;12.35;;;3.30;99.90;;;;;;5047054;28;20048;-61
2023/01/24 13:03:07;;;;;;;19.25;12.45;;;3.20;99.90;;;;;;5043707;28;20063;-61
2023/01/24 13:05:38;;;;;;;17.95;11.98;;;3.20;99.90;;;;;;5029201;28;20108;-61
2023/01/24 13:08:23;;;;;;;20.92;13.00;;;3.20;99.90;;;;;;5028759;28;20055;-61
2023/01/24 13:11:02;;;;;;;18.27;12.85;;;3.20;99.90;;;;;;5043097;28;20514;-61
2023/01/24 13:13:41;;;;;;;17.73;12.40;;;3.10;99.90;;;;;;5045677;28;20510;-61
2023/01/24 13:16:13;;;;;;;21.10;13.32;;;3.00;99.90;;;;;;5044255;28;20075;-61
2023/01/24 13:18:44;;;;;;;19.75;12.90;;;3.10;99.90;;;;;;5046248;28;20041;-61
2023/01/24 13:21:40;;;;;;;18.60;13.10;;;3.20;99.90;;;;;;5024809;28;20045;-61
2023/01/24 13:24:18;;;;;;;22.85;13.70;;;3.10;99.90;;;;;;5028868;28;20606;-61
2023/01/24 13:27:21;;;;;;;18.10;13.20;;;3.10;99.90;;;;;;5041036;28;20060;-62
2023/01/24 13:30:11;;;;;;;18.83;12.63;;;3.10;99.90;;;;;;5034383;28;20439;-68